sensor_id;sensor_type;location;lat;lon;timestamp;temperature;humidity
12632;DHT22;6381;45.748;12.106;2022-07-29T00:01:51;26.20;86.70
12632;DHT22;6381;45.748;12.106;2022-07-29T00:04:21;26.10;87.70
12632;DHT22;6381;45.748;12.106;2022-07-29T00:06:51;26.10;88.90
12632;DHT22;6381;45.748;12.106;2022-07-29T00:09:21;26.00;90.10
12632;DHT22;6381;45.748;12.106;2022-07-29T00:11:58;26.00;90.30
12632;DHT22;6381;45.748;12.106;2022-07-29T00:14:28;26.00;90.70
12632;DHT22;6381;45.748;12.106;2022-07-29T00:16:58;25.90;91.10
12632;DHT22;6381;45.748;12.106;2022-07-29T00:19:27;25.90;91.50
12632;DHT22;6381;45.748;12.106;2022-07-29T00:21:59;25.80;91.80
12632;DHT22;6381;45.748;12.106;2022-07-29T00:24:29;25.80;91.70
12632;DHT22;6381;45.748;12.106;2022-07-29T00:27:00;25.80;91.80
12632;DHT22;6381;45.748;12.106;2022-07-29T00:29:30;25.90;91.90
12632;DHT22;6381;45.748;12.106;2022-07-29T00:32:01;25.80;91.60
12632;DHT22;6381;45.748;12.106;2022-07-29T00:34:31;25.70;91.50
12632;DHT22;6381;45.748;12.106;2022-07-29T00:37:18;25.60;91.70
12632;DHT22;6381;45.748;12.106;2022-07-29T00:39:48;25.60;91.70
12632;DHT22;6381;45.748;12.106;2022-07-29T00:42:19;25.60;91.90
12632;DHT22;6381;45.748;12.106;2022-07-29T00:44:49;25.40;92.10
12632;DHT22;6381;45.748;12.106;2022-07-29T00:47:18;25.40;91.70
12632;DHT22;6381;45.748;12.106;2022-07-29T00:49:48;25.40;91.80
12632;DHT22;6381;45.748;12.106;2022-07-29T00:52:18;25.40;91.80
12632;DHT22;6381;45.748;12.106;2022-07-29T00:54:47;25.40;91.00
12632;DHT22;6381;45.748;12.106;2022-07-29T00:57:19;25.30;91.30
12632;DHT22;6381;45.748;12.106;2022-07-29T00:59:49;25.20;91.80
12632;DHT22;6381;45.748;12.106;2022-07-29T01:02:18;25.30;91.50
12632;DHT22;6381;45.748;12.106;2022-07-29T01:04:48;25.40;92.00
12632;DHT22;6381;45.748;12.106;2022-07-29T01:07:18;25.60;93.80
12632;DHT22;6381;45.748;12.106;2022-07-29T01:09:48;26.10;94.60
12632;DHT22;6381;45.748;12.106;2022-07-29T01:12:22;25.80;93.90
12632;DHT22;6381;45.748;12.106;2022-07-29T01:14:53;25.80;94.10
12632;DHT22;6381;45.748;12.106;2022-07-29T01:17:27;25.70;94.60
12632;DHT22;6381;45.748;12.106;2022-07-29T01:20:03;25.70;95.10
12632;DHT22;6381;45.748;12.106;2022-07-29T01:23:01;25.80;96.30
12632;DHT22;6381;45.748;12.106;2022-07-29T01:25:54;25.90;96.10
12632;DHT22;6381;45.748;12.106;2022-07-29T01:29:05;25.50;95.30
12632;DHT22;6381;45.748;12.106;2022-07-29T01:31:43;25.40;96.70
12632;DHT22;6381;45.748;12.106;2022-07-29T01:34:41;25.60;95.80
12632;DHT22;6381;45.748;12.106;2022-07-29T01:37:20;25.60;95.70
12632;DHT22;6381;45.748;12.106;2022-07-29T01:39:54;25.70;95.40
12632;DHT22;6381;45.748;12.106;2022-07-29T01:42:30;25.70;95.10
12632;DHT22;6381;45.748;12.106;2022-07-29T01:45:08;25.70;95.30
12632;DHT22;6381;45.748;12.106;2022-07-29T01:47:43;25.60;95.00
12632;DHT22;6381;45.748;12.106;2022-07-29T01:50:16;25.70;93.90
12632;DHT22;6381;45.748;12.106;2022-07-29T01:52:54;25.90;93.40
12632;DHT22;6381;45.748;12.106;2022-07-29T01:55:28;25.80;93.80
12632;DHT22;6381;45.748;12.106;2022-07-29T01:58:00;25.70;95.00
12632;DHT22;6381;45.748;12.106;2022-07-29T02:00:33;25.60;95.20
12632;DHT22;6381;45.748;12.106;2022-07-29T02:03:07;25.50;96.40
12632;DHT22;6381;45.748;12.106;2022-07-29T02:05:40;25.70;96.30
12632;DHT22;6381;45.748;12.106;2022-07-29T02:08:11;25.60;95.90
12632;DHT22;6381;45.748;12.106;2022-07-29T02:10:42;25.70;95.90
12632;DHT22;6381;45.748;12.106;2022-07-29T02:13:13;25.50;95.60
12632;DHT22;6381;45.748;12.106;2022-07-29T02:15:46;25.70;96.00
12632;DHT22;6381;45.748;12.106;2022-07-29T02:18:18;25.70;96.10
12632;DHT22;6381;45.748;12.106;2022-07-29T02:20:52;25.70;96.10
12632;DHT22;6381;45.748;12.106;2022-07-29T02:23:24;25.70;95.80
12632;DHT22;6381;45.748;12.106;2022-07-29T02:25:56;25.60;94.80
12632;DHT22;6381;45.748;12.106;2022-07-29T02:28:28;25.30;95.60
12632;DHT22;6381;45.748;12.106;2022-07-29T02:31:02;24.90;95.60
12632;DHT22;6381;45.748;12.106;2022-07-29T02:33:33;24.80;95.90
12632;DHT22;6381;45.748;12.106;2022-07-29T02:36:04;24.90;96.00
12632;DHT22;6381;45.748;12.106;2022-07-29T02:38:35;24.60;96.20
12632;DHT22;6381;45.748;12.106;2022-07-29T02:41:24;24.50;96.30
12632;DHT22;6381;45.748;12.106;2022-07-29T02:44:05;24.70;95.80
12632;DHT22;6381;45.748;12.106;2022-07-29T02:46:41;24.60;95.70
12632;DHT22;6381;45.748;12.106;2022-07-29T02:49:16;24.90;95.50
12632;DHT22;6381;45.748;12.106;2022-07-29T02:51:53;25.10;94.70
12632;DHT22;6381;45.748;12.106;2022-07-29T02:54:29;25.10;94.50
12632;DHT22;6381;45.748;12.106;2022-07-29T02:57:04;25.10;94.60
12632;DHT22;6381;45.748;12.106;2022-07-29T02:59:36;25.10;94.20
12632;DHT22;6381;45.748;12.106;2022-07-29T03:02:10;27.20;94.70
12632;DHT22;6381;45.748;12.106;2022-07-29T03:04:42;25.20;94.10
12632;DHT22;6381;45.748;12.106;2022-07-29T03:07:13;25.30;94.00
12632;DHT22;6381;45.748;12.106;2022-07-29T03:09:44;25.40;93.80
12632;DHT22;6381;45.748;12.106;2022-07-29T03:12:14;25.40;93.20
12632;DHT22;6381;45.748;12.106;2022-07-29T03:14:45;25.30;93.20
12632;DHT22;6381;45.748;12.106;2022-07-29T03:17:17;25.00;92.90
12632;DHT22;6381;45.748;12.106;2022-07-29T03:19:47;24.90;92.40
12632;DHT22;6381;45.748;12.106;2022-07-29T03:22:17;24.70;92.60
12632;DHT22;6381;45.748;12.106;2022-07-29T03:24:47;24.50;93.20
12632;DHT22;6381;45.748;12.106;2022-07-29T03:27:16;24.40;94.00
12632;DHT22;6381;45.748;12.106;2022-07-29T03:29:46;24.40;94.20
12632;DHT22;6381;45.748;12.106;2022-07-29T03:32:18;24.40;94.30
12632;DHT22;6381;45.748;12.106;2022-07-29T03:34:50;24.40;94.30
12632;DHT22;6381;45.748;12.106;2022-07-29T03:37:20;24.20;94.70
12632;DHT22;6381;45.748;12.106;2022-07-29T03:39:51;24.40;94.70
12632;DHT22;6381;45.748;12.106;2022-07-29T03:42:23;24.40;94.30
12632;DHT22;6381;45.748;12.106;2022-07-29T03:45:03;24.30;94.40
12632;DHT22;6381;45.748;12.106;2022-07-29T03:47:40;24.30;94.80
12632;DHT22;6381;45.748;12.106;2022-07-29T03:50:20;24.20;94.60
12632;DHT22;6381;45.748;12.106;2022-07-29T03:52:50;24.20;94.30
12632;DHT22;6381;45.748;12.106;2022-07-29T03:55:20;24.30;94.70
12632;DHT22;6381;45.748;12.106;2022-07-29T03:57:51;24.30;94.10
12632;DHT22;6381;45.748;12.106;2022-07-29T04:00:22;24.20;94.20
12632;DHT22;6381;45.748;12.106;2022-07-29T04:02:54;24.30;94.00
12632;DHT22;6381;45.748;12.106;2022-07-29T04:05:24;24.40;94.00
12632;DHT22;6381;45.748;12.106;2022-07-29T04:07:53;24.40;93.50
12632;DHT22;6381;45.748;12.106;2022-07-29T04:10:24;24.30;93.70
12632;DHT22;6381;45.748;12.106;2022-07-29T04:12:58;24.20;94.00
12632;DHT22;6381;45.748;12.106;2022-07-29T04:15:28;24.50;93.80
12632;DHT22;6381;45.748;12.106;2022-07-29T04:18:00;24.60;93.70
12632;DHT22;6381;45.748;12.106;2022-07-29T04:20:29;24.30;93.70
12632;DHT22;6381;45.748;12.106;2022-07-29T04:22:59;24.20;94.00
12632;DHT22;6381;45.748;12.106;2022-07-29T04:25:29;24.10;94.20
12632;DHT22;6381;45.748;12.106;2022-07-29T04:27:58;24.10;94.30
12632;DHT22;6381;45.748;12.106;2022-07-29T04:30:31;24.00;94.50
12632;DHT22;6381;45.748;12.106;2022-07-29T04:33:04;24.20;94.20
12632;DHT22;6381;45.748;12.106;2022-07-29T04:35:36;24.10;94.10
12632;DHT22;6381;45.748;12.106;2022-07-29T04:38:18;24.00;94.60
12632;DHT22;6381;45.748;12.106;2022-07-29T04:40:48;24.10;94.80
12632;DHT22;6381;45.748;12.106;2022-07-29T04:43:18;24.00;94.50
12632;DHT22;6381;45.748;12.106;2022-07-29T04:45:50;24.30;94.30
12632;DHT22;6381;45.748;12.106;2022-07-29T04:48:21;24.20;94.00
12632;DHT22;6381;45.748;12.106;2022-07-29T04:50:55;24.30;94.20
12632;DHT22;6381;45.748;12.106;2022-07-29T04:53:25;24.30;94.00
12632;DHT22;6381;45.748;12.106;2022-07-29T04:55:55;24.40;93.60
12632;DHT22;6381;45.748;12.106;2022-07-29T04:58:24;24.30;94.10
12632;DHT22;6381;45.748;12.106;2022-07-29T05:00:54;24.30;93.80
12632;DHT22;6381;45.748;12.106;2022-07-29T05:03:25;24.60;93.40
12632;DHT22;6381;45.748;12.106;2022-07-29T05:05:55;24.50;93.40
12632;DHT22;6381;45.748;12.106;2022-07-29T05:08:24;24.50;93.20
12632;DHT22;6381;45.748;12.106;2022-07-29T05:10:54;24.50;93.20
12632;DHT22;6381;45.748;12.106;2022-07-29T05:13:23;24.60;93.10
12632;DHT22;6381;45.748;12.106;2022-07-29T05:16:11;24.60;93.00
12632;DHT22;6381;45.748;12.106;2022-07-29T05:18:42;24.80;92.80
12632;DHT22;6381;45.748;12.106;2022-07-29T05:21:12;24.90;92.50
12632;DHT22;6381;45.748;12.106;2022-07-29T05:23:42;24.90;92.40
12632;DHT22;6381;45.748;12.106;2022-07-29T05:26:11;24.80;92.20
12632;DHT22;6381;45.748;12.106;2022-07-29T05:28:41;24.90;92.00
12632;DHT22;6381;45.748;12.106;2022-07-29T05:31:10;25.00;91.70
12632;DHT22;6381;45.748;12.106;2022-07-29T05:33:43;25.10;91.40
12632;DHT22;6381;45.748;12.106;2022-07-29T05:36:13;25.10;91.40
12632;DHT22;6381;45.748;12.106;2022-07-29T05:38:43;25.10;91.30
12632;DHT22;6381;45.748;12.106;2022-07-29T05:41:14;25.20;91.20
12632;DHT22;6381;45.748;12.106;2022-07-29T05:43:43;25.30;91.40
12632;DHT22;6381;45.748;12.106;2022-07-29T05:46:13;25.20;91.30
12632;DHT22;6381;45.748;12.106;2022-07-29T05:48:44;25.30;91.20
12632;DHT22;6381;45.748;12.106;2022-07-29T05:51:14;25.40;90.90
12632;DHT22;6381;45.748;12.106;2022-07-29T05:53:43;25.60;90.60
12632;DHT22;6381;45.748;12.106;2022-07-29T05:56:14;25.50;90.60
12632;DHT22;6381;45.748;12.106;2022-07-29T05:58:43;25.60;90.80
12632;DHT22;6381;45.748;12.106;2022-07-29T06:01:13;25.60;90.20
12632;DHT22;6381;45.748;12.106;2022-07-29T06:03:44;25.70;90.20
12632;DHT22;6381;45.748;12.106;2022-07-29T06:06:13;25.90;89.80
12632;DHT22;6381;45.748;12.106;2022-07-29T06:08:43;25.90;88.50
12632;DHT22;6381;45.748;12.106;2022-07-29T06:11:12;26.00;87.90
12632;DHT22;6381;45.748;12.106;2022-07-29T06:13:42;26.00;88.20
12632;DHT22;6381;45.748;12.106;2022-07-29T06:16:12;26.10;88.10
12632;DHT22;6381;45.748;12.106;2022-07-29T06:18:56;26.10;87.40
12632;DHT22;6381;45.748;12.106;2022-07-29T06:21:26;26.30;86.70
12632;DHT22;6381;45.748;12.106;2022-07-29T06:23:56;26.40;85.60
12632;DHT22;6381;45.748;12.106;2022-07-29T06:26:25;26.50;85.50
12632;DHT22;6381;45.748;12.106;2022-07-29T06:28:58;26.40;85.30
12632;DHT22;6381;45.748;12.106;2022-07-29T06:31:28;26.40;84.90
12632;DHT22;6381;45.748;12.106;2022-07-29T06:33:59;26.60;86.20
12632;DHT22;6381;45.748;12.106;2022-07-29T06:36:30;26.90;84.00
12632;DHT22;6381;45.748;12.106;2022-07-29T06:39:00;27.00;83.20
12632;DHT22;6381;45.748;12.106;2022-07-29T06:41:30;27.10;83.50
12632;DHT22;6381;45.748;12.106;2022-07-29T06:44:08;27.10;82.70
12632;DHT22;6381;45.748;12.106;2022-07-29T06:46:38;27.30;81.20
12632;DHT22;6381;45.748;12.106;2022-07-29T06:49:12;27.50;80.20
12632;DHT22;6381;45.748;12.106;2022-07-29T06:51:42;27.50;79.10
12632;DHT22;6381;45.748;12.106;2022-07-29T06:54:11;27.40;78.70
12632;DHT22;6381;45.748;12.106;2022-07-29T06:56:41;27.50;78.30
12632;DHT22;6381;45.748;12.106;2022-07-29T06:59:12;27.40;76.50
12632;DHT22;6381;45.748;12.106;2022-07-29T07:01:42;27.50;76.60
12632;DHT22;6381;45.748;12.106;2022-07-29T07:04:14;27.60;77.20
12632;DHT22;6381;45.748;12.106;2022-07-29T07:06:44;27.70;77.40
12632;DHT22;6381;45.748;12.106;2022-07-29T07:09:13;27.60;77.90
12632;DHT22;6381;45.748;12.106;2022-07-29T07:11:43;27.70;76.10
12632;DHT22;6381;45.748;12.106;2022-07-29T07:14:16;27.90;77.00
12632;DHT22;6381;45.748;12.106;2022-07-29T07:16:47;28.00;77.50
12632;DHT22;6381;45.748;12.106;2022-07-29T07:19:20;28.20;76.90
12632;DHT22;6381;45.748;12.106;2022-07-29T07:21:50;28.30;77.00
12632;DHT22;6381;45.748;12.106;2022-07-29T07:24:22;28.30;76.30
12632;DHT22;6381;45.748;12.106;2022-07-29T07:26:51;28.00;74.90
12632;DHT22;6381;45.748;12.106;2022-07-29T07:29:21;28.20;74.60
12632;DHT22;6381;45.748;12.106;2022-07-29T07:31:50;28.40;74.40
12632;DHT22;6381;45.748;12.106;2022-07-29T07:34:28;28.50;74.20
12632;DHT22;6381;45.748;12.106;2022-07-29T07:36:58;28.30;72.80
12632;DHT22;6381;45.748;12.106;2022-07-29T07:39:28;28.50;73.40
12632;DHT22;6381;45.748;12.106;2022-07-29T07:41:57;28.70;73.70
12632;DHT22;6381;45.748;12.106;2022-07-29T07:44:27;28.80;72.20
12632;DHT22;6381;45.748;12.106;2022-07-29T07:46:56;28.70;72.30
12632;DHT22;6381;45.748;12.106;2022-07-29T07:49:41;28.80;71.60
12632;DHT22;6381;45.748;12.106;2022-07-29T07:52:11;28.90;72.30
12632;DHT22;6381;45.748;12.106;2022-07-29T07:54:41;28.50;70.90
12632;DHT22;6381;45.748;12.106;2022-07-29T07:57:11;28.20;71.10
12632;DHT22;6381;45.748;12.106;2022-07-29T07:59:41;28.20;70.00
12632;DHT22;6381;45.748;12.106;2022-07-29T08:02:10;28.40;70.20
12632;DHT22;6381;45.748;12.106;2022-07-29T08:04:41;28.60;70.30
12632;DHT22;6381;45.748;12.106;2022-07-29T08:07:11;29.00;70.80
12632;DHT22;6381;45.748;12.106;2022-07-29T08:09:42;29.10;71.40
12632;DHT22;6381;45.748;12.106;2022-07-29T08:12:12;29.30;72.50
12632;DHT22;6381;45.748;12.106;2022-07-29T08:14:43;28.90;70.90
12632;DHT22;6381;45.748;12.106;2022-07-29T08:17:12;29.00;70.30
12632;DHT22;6381;45.748;12.106;2022-07-29T08:19:43;28.90;70.20
12632;DHT22;6381;45.748;12.106;2022-07-29T08:22:13;29.00;68.30
12632;DHT22;6381;45.748;12.106;2022-07-29T08:24:42;29.20;68.50
12632;DHT22;6381;45.748;12.106;2022-07-29T08:27:14;29.40;69.10
12632;DHT22;6381;45.748;12.106;2022-07-29T08:30:06;29.50;68.50
12632;DHT22;6381;45.748;12.106;2022-07-29T08:32:38;29.50;66.60
12632;DHT22;6381;45.748;12.106;2022-07-29T08:35:23;30.00;69.20
12632;DHT22;6381;45.748;12.106;2022-07-29T08:37:53;30.40;66.70
12632;DHT22;6381;45.748;12.106;2022-07-29T08:40:24;30.30;65.00
12632;DHT22;6381;45.748;12.106;2022-07-29T08:43:03;30.20;65.60
12632;DHT22;6381;45.748;12.106;2022-07-29T08:45:43;30.30;66.10
12632;DHT22;6381;45.748;12.106;2022-07-29T08:48:17;30.40;66.10
12632;DHT22;6381;45.748;12.106;2022-07-29T08:50:49;30.40;64.30
12632;DHT22;6381;45.748;12.106;2022-07-29T08:53:21;30.40;64.40
12632;DHT22;6381;45.748;12.106;2022-07-29T08:55:55;30.50;65.50
12632;DHT22;6381;45.748;12.106;2022-07-29T08:58:25;30.50;63.70
12632;DHT22;6381;45.748;12.106;2022-07-29T09:00:56;31.60;65.00
12632;DHT22;6381;45.748;12.106;2022-07-29T09:03:30;30.10;64.10
12632;DHT22;6381;45.748;12.106;2022-07-29T09:06:02;30.40;65.30
12632;DHT22;6381;45.748;12.106;2022-07-29T09:08:32;30.40;63.50
12632;DHT22;6381;45.748;12.106;2022-07-29T09:11:02;30.40;64.60
12632;DHT22;6381;45.748;12.106;2022-07-29T09:13:32;30.30;62.90
12632;DHT22;6381;45.748;12.106;2022-07-29T09:16:04;29.90;62.60
12632;DHT22;6381;45.748;12.106;2022-07-29T09:18:37;30.10;64.70
12632;DHT22;6381;45.748;12.106;2022-07-29T09:21:10;30.50;64.40
12632;DHT22;6381;45.748;12.106;2022-07-29T09:24:05;30.60;63.20
12632;DHT22;6381;45.748;12.106;2022-07-29T09:26:37;30.30;62.30
12632;DHT22;6381;45.748;12.106;2022-07-29T09:29:11;30.20;63.30
12632;DHT22;6381;45.748;12.106;2022-07-29T09:31:42;30.40;64.20
12632;DHT22;6381;45.748;12.106;2022-07-29T09:34:14;30.20;63.80
12632;DHT22;6381;45.748;12.106;2022-07-29T09:36:47;30.10;64.30
12632;DHT22;6381;45.748;12.106;2022-07-29T09:39:28;30.60;64.50
12632;DHT22;6381;45.748;12.106;2022-07-29T09:42:00;30.60;64.00
12632;DHT22;6381;45.748;12.106;2022-07-29T09:44:41;30.80;63.70
12632;DHT22;6381;45.748;12.106;2022-07-29T09:47:11;30.60;61.60
12632;DHT22;6381;45.748;12.106;2022-07-29T09:49:53;30.40;62.00
12632;DHT22;6381;45.748;12.106;2022-07-29T09:52:25;30.30;61.20
12632;DHT22;6381;45.748;12.106;2022-07-29T09:55:04;30.40;61.20
12632;DHT22;6381;45.748;12.106;2022-07-29T09:57:34;30.40;60.90
12632;DHT22;6381;45.748;12.106;2022-07-29T10:00:06;30.50;62.30
12632;DHT22;6381;45.748;12.106;2022-07-29T10:02:41;30.70;60.50
12632;DHT22;6381;45.748;12.106;2022-07-29T10:05:20;30.50;60.50
12632;DHT22;6381;45.748;12.106;2022-07-29T10:07:53;30.80;60.30
12632;DHT22;6381;45.748;12.106;2022-07-29T10:10:25;30.80;60.70
12632;DHT22;6381;45.748;12.106;2022-07-29T10:12:55;30.80;61.00
12632;DHT22;6381;45.748;12.106;2022-07-29T10:15:34;30.90;59.30
12632;DHT22;6381;45.748;12.106;2022-07-29T10:18:07;31.40;59.30
12632;DHT22;6381;45.748;12.106;2022-07-29T10:20:38;31.30;57.80
12632;DHT22;6381;45.748;12.106;2022-07-29T10:23:09;31.00;57.70
12632;DHT22;6381;45.748;12.106;2022-07-29T10:25:39;30.90;57.80
12632;DHT22;6381;45.748;12.106;2022-07-29T10:28:13;30.60;56.30
12632;DHT22;6381;45.748;12.106;2022-07-29T10:30:44;30.50;56.60
12632;DHT22;6381;45.748;12.106;2022-07-29T10:33:38;30.60;57.10
12632;DHT22;6381;45.748;12.106;2022-07-29T10:36:25;30.90;58.20
12632;DHT22;6381;45.748;12.106;2022-07-29T10:39:08;30.60;58.80
12632;DHT22;6381;45.748;12.106;2022-07-29T10:41:56;30.80;59.80
12632;DHT22;6381;45.748;12.106;2022-07-29T10:44:30;30.80;61.00
12632;DHT22;6381;45.748;12.106;2022-07-29T10:47:01;31.50;62.00
12632;DHT22;6381;45.748;12.106;2022-07-29T10:49:31;31.80;60.00
12632;DHT22;6381;45.748;12.106;2022-07-29T10:52:03;32.20;58.80
12632;DHT22;6381;45.748;12.106;2022-07-29T10:54:43;31.70;56.10
12632;DHT22;6381;45.748;12.106;2022-07-29T10:57:15;31.30;56.30
12632;DHT22;6381;45.748;12.106;2022-07-29T10:59:48;31.30;55.50
12632;DHT22;6381;45.748;12.106;2022-07-29T11:02:41;31.70;56.40
12632;DHT22;6381;45.748;12.106;2022-07-29T11:05:13;32.20;56.60
12632;DHT22;6381;45.748;12.106;2022-07-29T11:08:19;31.50;55.30
12632;DHT22;6381;45.748;12.106;2022-07-29T11:14:03;31.60;55.40
12632;DHT22;6381;45.748;12.106;2022-07-29T11:17:04;31.50;54.70
12632;DHT22;6381;45.748;12.106;2022-07-29T11:19:35;31.30;54.90
12632;DHT22;6381;45.748;12.106;2022-07-29T11:22:33;31.90;56.20
12632;DHT22;6381;45.748;12.106;2022-07-29T11:25:17;32.60;56.40
12632;DHT22;6381;45.748;12.106;2022-07-29T11:28:12;32.10;52.90
12632;DHT22;6381;45.748;12.106;2022-07-29T11:30:54;32.40;56.30
12632;DHT22;6381;45.748;12.106;2022-07-29T11:33:30;32.40;54.20
12632;DHT22;6381;45.748;12.106;2022-07-29T11:36:20;32.00;55.20
12632;DHT22;6381;45.748;12.106;2022-07-29T11:39:28;32.70;55.70
12632;DHT22;6381;45.748;12.106;2022-07-29T11:45:15;32.40;53.40
12632;DHT22;6381;45.748;12.106;2022-07-29T11:48:07;32.40;52.90
12632;DHT22;6381;45.748;12.106;2022-07-29T11:51:09;33.00;53.40
12632;DHT22;6381;45.748;12.106;2022-07-29T11:53:39;32.60;53.60
12632;DHT22;6381;45.748;12.106;2022-07-29T11:56:13;33.30;52.70
12632;DHT22;6381;45.748;12.106;2022-07-29T11:58:45;33.60;51.60
12632;DHT22;6381;45.748;12.106;2022-07-29T12:01:16;33.80;51.60
12632;DHT22;6381;45.748;12.106;2022-07-29T12:03:48;33.70;50.20
12632;DHT22;6381;45.748;12.106;2022-07-29T12:06:33;33.30;51.70
12632;DHT22;6381;45.748;12.106;2022-07-29T12:09:07;33.50;51.20
12632;DHT22;6381;45.748;12.106;2022-07-29T12:11:41;32.70;51.20
12632;DHT22;6381;45.748;12.106;2022-07-29T12:14:26;32.70;51.00
12632;DHT22;6381;45.748;12.106;2022-07-29T12:16:56;33.10;50.90
12632;DHT22;6381;45.748;12.106;2022-07-29T12:19:27;33.30;50.30
12632;DHT22;6381;45.748;12.106;2022-07-29T12:21:58;33.70;50.70
12632;DHT22;6381;45.748;12.106;2022-07-29T12:24:42;33.70;51.40
12632;DHT22;6381;45.748;12.106;2022-07-29T12:27:17;33.50;50.70
12632;DHT22;6381;45.748;12.106;2022-07-29T12:29:57;34.30;50.10
12632;DHT22;6381;45.748;12.106;2022-07-29T12:32:38;34.70;51.40
12632;DHT22;6381;45.748;12.106;2022-07-29T12:35:12;35.00;52.20
12632;DHT22;6381;45.748;12.106;2022-07-29T12:37:44;33.70;49.60
12632;DHT22;6381;45.748;12.106;2022-07-29T12:40:17;33.50;48.70
12632;DHT22;6381;45.748;12.106;2022-07-29T12:43:04;34.10;51.10
12632;DHT22;6381;45.748;12.106;2022-07-29T12:45:34;34.70;47.70
12632;DHT22;6381;45.748;12.106;2022-07-29T12:48:05;35.00;47.70
12632;DHT22;6381;45.748;12.106;2022-07-29T12:50:52;35.30;46.50
12632;DHT22;6381;45.748;12.106;2022-07-29T12:53:22;34.70;46.10
12632;DHT22;6381;45.748;12.106;2022-07-29T12:55:53;35.60;49.30
12632;DHT22;6381;45.748;12.106;2022-07-29T12:58:28;34.30;46.00
12632;DHT22;6381;45.748;12.106;2022-07-29T13:01:06;34.60;47.00
12632;DHT22;6381;45.748;12.106;2022-07-29T13:03:45;35.60;47.70
12632;DHT22;6381;45.748;12.106;2022-07-29T13:06:30;35.40;46.50
12632;DHT22;6381;45.748;12.106;2022-07-29T13:09:03;33.90;47.70
12632;DHT22;6381;45.748;12.106;2022-07-29T13:11:34;34.70;46.90
12632;DHT22;6381;45.748;12.106;2022-07-29T13:14:05;34.90;46.70
12632;DHT22;6381;45.748;12.106;2022-07-29T13:16:36;35.10;46.70
12632;DHT22;6381;45.748;12.106;2022-07-29T13:19:31;34.60;48.00
12632;DHT22;6381;45.748;12.106;2022-07-29T13:22:03;34.90;46.60
12632;DHT22;6381;45.748;12.106;2022-07-29T13:24:33;34.80;46.60
12632;DHT22;6381;45.748;12.106;2022-07-29T13:27:03;35.50;46.70
12632;DHT22;6381;45.748;12.106;2022-07-29T13:29:32;36.20;46.50
12632;DHT22;6381;45.748;12.106;2022-07-29T13:32:02;36.50;46.40
12632;DHT22;6381;45.748;12.106;2022-07-29T13:34:32;36.40;45.80
12632;DHT22;6381;45.748;12.106;2022-07-29T13:37:03;36.40;46.00
12632;DHT22;6381;45.748;12.106;2022-07-29T13:39:33;35.80;44.90
12632;DHT22;6381;45.748;12.106;2022-07-29T13:42:03;35.60;46.80
12632;DHT22;6381;45.748;12.106;2022-07-29T13:44:37;35.40;46.20
12632;DHT22;6381;45.748;12.106;2022-07-29T13:47:07;35.70;45.30
12632;DHT22;6381;45.748;12.106;2022-07-29T13:49:37;35.10;45.70
12632;DHT22;6381;45.748;12.106;2022-07-29T13:52:08;35.10;46.10
12632;DHT22;6381;45.748;12.106;2022-07-29T13:54:38;35.30;45.70
12632;DHT22;6381;45.748;12.106;2022-07-29T13:57:09;35.90;46.10
12632;DHT22;6381;45.748;12.106;2022-07-29T13:59:40;35.70;45.50
12632;DHT22;6381;45.748;12.106;2022-07-29T14:02:10;35.60;45.70
12632;DHT22;6381;45.748;12.106;2022-07-29T14:04:42;36.80;45.10
12632;DHT22;6381;45.748;12.106;2022-07-29T14:07:13;36.70;44.20
12632;DHT22;6381;45.748;12.106;2022-07-29T14:09:43;35.90;43.80
12632;DHT22;6381;45.748;12.106;2022-07-29T14:12:12;36.00;43.80
12632;DHT22;6381;45.748;12.106;2022-07-29T14:14:42;36.60;44.50
12632;DHT22;6381;45.748;12.106;2022-07-29T14:17:14;37.80;45.10
12632;DHT22;6381;45.748;12.106;2022-07-29T14:19:43;38.20;45.60
12632;DHT22;6381;45.748;12.106;2022-07-29T14:22:14;37.60;42.50
12632;DHT22;6381;45.748;12.106;2022-07-29T14:24:52;37.20;44.20
12632;DHT22;6381;45.748;12.106;2022-07-29T14:27:21;37.80;44.10
12632;DHT22;6381;45.748;12.106;2022-07-29T14:30:06;38.70;43.10
12632;DHT22;6381;45.748;12.106;2022-07-29T14:32:36;38.50;42.10
12632;DHT22;6381;45.748;12.106;2022-07-29T14:35:06;38.10;41.80
12632;DHT22;6381;45.748;12.106;2022-07-29T14:37:37;36.60;41.90
12632;DHT22;6381;45.748;12.106;2022-07-29T14:40:08;36.70;41.80
12632;DHT22;6381;45.748;12.106;2022-07-29T14:42:38;37.80;42.30
12632;DHT22;6381;45.748;12.106;2022-07-29T14:45:09;38.30;41.50
12632;DHT22;6381;45.748;12.106;2022-07-29T14:47:39;36.80;41.10
12632;DHT22;6381;45.748;12.106;2022-07-29T14:50:09;36.00;41.60
12632;DHT22;6381;45.748;12.106;2022-07-29T14:52:40;36.10;41.90
12632;DHT22;6381;45.748;12.106;2022-07-29T14:55:10;36.00;42.20
12632;DHT22;6381;45.748;12.106;2022-07-29T14:57:47;35.90;42.50
12632;DHT22;6381;45.748;12.106;2022-07-29T15:00:18;35.50;43.50
12632;DHT22;6381;45.748;12.106;2022-07-29T15:02:48;35.20;43.30
12632;DHT22;6381;45.748;12.106;2022-07-29T15:05:29;34.80;43.80
12632;DHT22;6381;45.748;12.106;2022-07-29T15:08:04;34.50;44.60
12632;DHT22;6381;45.748;12.106;2022-07-29T15:10:33;34.50;44.60
12632;DHT22;6381;45.748;12.106;2022-07-29T15:13:03;34.20;45.10
12632;DHT22;6381;45.748;12.106;2022-07-29T15:15:33;34.20;45.10
12632;DHT22;6381;45.748;12.106;2022-07-29T15:18:03;34.40;44.90
12632;DHT22;6381;45.748;12.106;2022-07-29T15:20:32;34.40;45.10
12632;DHT22;6381;45.748;12.106;2022-07-29T15:23:03;34.20;45.80
12632;DHT22;6381;45.748;12.106;2022-07-29T15:25:37;34.00;48.50
12632;DHT22;6381;45.748;12.106;2022-07-29T15:28:07;34.20;48.80
12632;DHT22;6381;45.748;12.106;2022-07-29T15:30:36;34.00;48.80
12632;DHT22;6381;45.748;12.106;2022-07-29T15:33:09;33.60;49.80
12632;DHT22;6381;45.748;12.106;2022-07-29T15:35:38;33.40;50.20
12632;DHT22;6381;45.748;12.106;2022-07-29T15:38:09;33.20;50.60
12632;DHT22;6381;45.748;12.106;2022-07-29T15:40:39;33.20;50.70
12632;DHT22;6381;45.748;12.106;2022-07-29T15:43:11;32.90;50.80
12632;DHT22;6381;45.748;12.106;2022-07-29T15:45:42;32.70;50.90
12632;DHT22;6381;45.748;12.106;2022-07-29T15:48:33;32.50;50.90
12632;DHT22;6381;45.748;12.106;2022-07-29T15:51:06;32.30;51.00
12632;DHT22;6381;45.748;12.106;2022-07-29T15:53:37;32.30;51.40
12632;DHT22;6381;45.748;12.106;2022-07-29T15:56:07;32.40;51.50
12632;DHT22;6381;45.748;12.106;2022-07-29T15:58:36;32.40;52.20
12632;DHT22;6381;45.748;12.106;2022-07-29T16:01:06;32.30;51.30
12632;DHT22;6381;45.748;12.106;2022-07-29T16:03:36;32.00;51.80
12632;DHT22;6381;45.748;12.106;2022-07-29T16:06:12;32.00;51.90
12632;DHT22;6381;45.748;12.106;2022-07-29T16:08:44;32.00;52.20
12632;DHT22;6381;45.748;12.106;2022-07-29T16:11:14;31.90;52.40
12632;DHT22;6381;45.748;12.106;2022-07-29T16:13:43;31.90;52.40
12632;DHT22;6381;45.748;12.106;2022-07-29T16:16:13;31.90;52.90